sensor_id;sensor_type;location;lat;lon;timestamp;P1;durP1;ratioP1;P2;durP2;ratioP2
32407;SDS011;18869;55.970;37.502;2022-09-19T00:01:54;7.00;;;6.30;;
32407;SDS011;18869;55.970;37.502;2022-09-19T00:04:25;7.37;;;6.77;;
32407;SDS011;18869;55.970;37.502;2022-09-19T00:06:56;7.40;;;6.70;;
32407;SDS011;18869;55.970;37.502;2022-09-19T00:09:25;7.17;;;6.57;;
32407;SDS011;18869;55.970;37.502;2022-09-19T00:11:54;6.63;;;6.13;;
32407;SDS011;18869;55.970;37.502;2022-09-19T00:14:23;6.93;;;6.23;;
32407;SDS011;18869;55.970;37.502;2022-09-19T00:16:53;7.50;;;6.83;;
32407;SDS011;18869;55.970;37.502;2022-09-19T00:19:25;6.60;;;6.10;;
32407;SDS011;18869;55.970;37.502;2022-09-19T00:21:55;6.10;;;5.60;;
32407;SDS011;18869;55.970;37.502;2022-09-19T00:24:24;7.27;;;6.67;;
32407;SDS011;18869;55.970;37.502;2022-09-19T00:27:10;7.20;;;6.57;;
32407;SDS011;18869;55.970;37.502;2022-09-19T00:29:39;8.90;;;7.50;;
32407;SDS011;18869;55.970;37.502;2022-09-19T00:32:10;7.63;;;6.87;;
32407;SDS011;18869;55.970;37.502;2022-09-19T00:34:41;6.57;;;6.00;;
32407;SDS011;18869;55.970;37.502;2022-09-19T00:37:10;8.37;;;6.33;;
32407;SDS011;18869;55.970;37.502;2022-09-19T00:39:39;6.57;;;5.97;;
32407;SDS011;18869;55.970;37.502;2022-09-19T00:42:13;7.53;;;6.83;;
32407;SDS011;18869;55.970;37.502;2022-09-19T00:44:52;6.40;;;5.80;;
32407;SDS011;18869;55.970;37.502;2022-09-19T00:47:22;6.97;;;6.47;;
32407;SDS011;18869;55.970;37.502;2022-09-19T00:49:57;6.20;;;5.70;;
32407;SDS011;18869;55.970;37.502;2022-09-19T00:52:28;6.30;;;5.80;;
32407;SDS011;18869;55.970;37.502;2022-09-19T00:54:59;6.83;;;6.23;;
32407;SDS011;18869;55.970;37.502;2022-09-19T00:57:40;7.13;;;5.87;;
32407;SDS011;18869;55.970;37.502;2022-09-19T01:00:18;6.67;;;6.10;;
32407;SDS011;18869;55.970;37.502;2022-09-19T01:02:49;7.00;;;6.40;;
32407;SDS011;18869;55.970;37.502;2022-09-19T01:05:19;5.80;;;5.30;;
32407;SDS011;18869;55.970;37.502;2022-09-19T01:07:59;5.97;;;5.47;;
32407;SDS011;18869;55.970;37.502;2022-09-19T01:10:48;6.53;;;6.00;;
32407;SDS011;18869;55.970;37.502;2022-09-19T01:13:26;6.20;;;5.70;;
32407;SDS011;18869;55.970;37.502;2022-09-19T01:16:00;6.37;;;5.77;;
32407;SDS011;18869;55.970;37.502;2022-09-19T01:18:34;6.10;;;5.60;;
32407;SDS011;18869;55.970;37.502;2022-09-19T01:21:15;6.93;;;6.43;;
32407;SDS011;18869;55.970;37.502;2022-09-19T01:27:14;7.30;;;6.63;;
32407;SDS011;18869;55.970;37.502;2022-09-19T01:30:02;6.80;;;6.20;;
32407;SDS011;18869;55.970;37.502;2022-09-19T01:32:36;8.53;;;7.80;;
32407;SDS011;18869;55.970;37.502;2022-09-19T01:35:10;10.57;;;7.97;;
32407;SDS011;18869;55.970;37.502;2022-09-19T01:37:40;8.10;;;7.33;;
32407;SDS011;18869;55.970;37.502;2022-09-19T01:40:11;8.43;;;7.73;;
32407;SDS011;18869;55.970;37.502;2022-09-19T01:42:48;9.70;;;8.70;;
32407;SDS011;18869;55.970;37.502;2022-09-19T01:45:21;9.37;;;8.47;;
32407;SDS011;18869;55.970;37.502;2022-09-19T01:47:51;8.93;;;8.17;;
32407;SDS011;18869;55.970;37.502;2022-09-19T01:50:38;10.07;;;9.13;;
32407;SDS011;18869;55.970;37.502;2022-09-19T01:53:32;10.17;;;9.13;;
32407;SDS011;18869;55.970;37.502;2022-09-19T01:56:08;10.13;;;9.13;;
32407;SDS011;18869;55.970;37.502;2022-09-19T01:58:39;11.43;;;10.43;;
32407;SDS011;18869;55.970;37.502;2022-09-19T02:01:16;11.70;;;10.50;;
32407;SDS011;18869;55.970;37.502;2022-09-19T02:03:48;12.77;;;11.50;;
32407;SDS011;18869;55.970;37.502;2022-09-19T02:06:19;11.73;;;10.57;;
32407;SDS011;18869;55.970;37.502;2022-09-19T02:08:55;13.03;;;11.83;;
32407;SDS011;18869;55.970;37.502;2022-09-19T02:11:27;12.83;;;11.57;;
32407;SDS011;18869;55.970;37.502;2022-09-19T02:13:56;14.30;;;12.40;;
32407;SDS011;18869;55.970;37.502;2022-09-19T02:16:28;12.50;;;11.20;;
32407;SDS011;18869;55.970;37.502;2022-09-19T02:19:02;13.97;;;12.53;;
32407;SDS011;18869;55.970;37.502;2022-09-19T02:21:36;12.77;;;11.67;;
32407;SDS011;18869;55.970;37.502;2022-09-19T02:24:06;13.53;;;12.23;;
32407;SDS011;18869;55.970;37.502;2022-09-19T02:26:40;13.93;;;12.53;;
32407;SDS011;18869;55.970;37.502;2022-09-19T02:29:11;14.77;;;13.27;;
32407;SDS011;18869;55.970;37.502;2022-09-19T02:31:41;14.73;;;13.33;;
32407;SDS011;18869;55.970;37.502;2022-09-19T02:34:11;14.00;;;12.57;;
32407;SDS011;18869;55.970;37.502;2022-09-19T02:36:41;13.77;;;12.07;;
32407;SDS011;18869;55.970;37.502;2022-09-19T02:39:17;14.23;;;12.87;;
32407;SDS011;18869;55.970;37.502;2022-09-19T02:41:51;14.83;;;13.33;;
32407;SDS011;18869;55.970;37.502;2022-09-19T02:44:24;13.37;;;12.03;;
32407;SDS011;18869;55.970;37.502;2022-09-19T02:46:59;12.93;;;11.70;;
32407;SDS011;18869;55.970;37.502;2022-09-19T02:49:33;11.50;;;10.37;;
32407;SDS011;18869;55.970;37.502;2022-09-19T02:52:06;13.17;;;11.97;;
32407;SDS011;18869;55.970;37.502;2022-09-19T02:54:36;13.00;;;11.63;;
32407;SDS011;18869;55.970;37.502;2022-09-19T02:57:05;13.27;;;11.97;;
32407;SDS011;18869;55.970;37.502;2022-09-19T02:59:36;12.90;;;11.73;;
32407;SDS011;18869;55.970;37.502;2022-09-19T03:02:09;13.33;;;12.03;;
32407;SDS011;18869;55.970;37.502;2022-09-19T03:04:42;12.17;;;10.87;;
32407;SDS011;18869;55.970;37.502;2022-09-19T03:07:14;13.27;;;11.50;;
32407;SDS011;18869;55.970;37.502;2022-09-19T03:09:46;12.53;;;10.73;;
32407;SDS011;18869;55.970;37.502;2022-09-19T03:12:22;12.03;;;10.97;;
32407;SDS011;18869;55.970;37.502;2022-09-19T03:14:53;16.30;;;10.63;;
32407;SDS011;18869;55.970;37.502;2022-09-19T03:17:27;10.30;;;9.30;;
32407;SDS011;18869;55.970;37.502;2022-09-19T03:19:58;11.20;;;9.43;;
32407;SDS011;18869;55.970;37.502;2022-09-19T03:22:32;9.03;;;8.13;;
32407;SDS011;18869;55.970;37.502;2022-09-19T03:25:00;10.07;;;8.37;;
32407;SDS011;18869;55.970;37.502;2022-09-19T03:27:30;12.17;;;8.70;;
32407;SDS011;18869;55.970;37.502;2022-09-19T03:29:58;10.33;;;8.40;;
32407;SDS011;18869;55.970;37.502;2022-09-19T03:32:28;10.07;;;8.13;;
32407;SDS011;18869;55.970;37.502;2022-09-19T03:34:55;8.70;;;7.83;;
32407;SDS011;18869;55.970;37.502;2022-09-19T03:37:23;8.67;;;7.87;;
32407;SDS011;18869;55.970;37.502;2022-09-19T03:39:51;8.50;;;7.30;;
32407;SDS011;18869;55.970;37.502;2022-09-19T03:42:19;11.07;;;8.30;;
32407;SDS011;18869;55.970;37.502;2022-09-19T03:44:46;8.70;;;7.70;;
32407;SDS011;18869;55.970;37.502;2022-09-19T03:47:14;8.77;;;7.93;;
32407;SDS011;18869;55.970;37.502;2022-09-19T03:49:43;9.20;;;8.27;;
32407;SDS011;18869;55.970;37.502;2022-09-19T03:52:11;8.67;;;7.77;;
32407;SDS011;18869;55.970;37.502;2022-09-19T03:54:38;7.73;;;6.93;;
32407;SDS011;18869;55.970;37.502;2022-09-19T03:57:06;7.83;;;6.43;;
32407;SDS011;18869;55.970;37.502;2022-09-19T03:59:34;7.73;;;6.90;;
32407;SDS011;18869;55.970;37.502;2022-09-19T04:02:05;7.03;;;5.60;;
32407;SDS011;18869;55.970;37.502;2022-09-19T04:04:33;7.10;;;6.00;;
32407;SDS011;18869;55.970;37.502;2022-09-19T04:07:03;6.80;;;6.20;;
32407;SDS011;18869;55.970;37.502;2022-09-19T04:09:30;5.93;;;5.33;;
32407;SDS011;18869;55.970;37.502;2022-09-19T04:12:00;9.73;;;6.33;;
32407;SDS011;18869;55.970;37.502;2022-09-19T04:14:32;9.77;;;6.33;;
32407;SDS011;18869;55.970;37.502;2022-09-19T04:17:04;9.07;;;6.97;;
32407;SDS011;18869;55.970;37.502;2022-09-19T04:19:33;7.93;;;6.17;;
32407;SDS011;18869;55.970;37.502;2022-09-19T04:22:04;8.03;;;6.47;;
32407;SDS011;18869;55.970;37.502;2022-09-19T04:24:31;6.13;;;5.53;;
32407;SDS011;18869;55.970;37.502;2022-09-19T04:27:00;4.43;;;3.97;;
32407;SDS011;18869;55.970;37.502;2022-09-19T04:29:33;6.57;;;3.00;;
32407;SDS011;18869;55.970;37.502;2022-09-19T04:32:02;4.53;;;2.40;;
32407;SDS011;18869;55.970;37.502;2022-09-19T04:34:30;5.90;;;1.93;;
32407;SDS011;18869;55.970;37.502;2022-09-19T04:37:00;2.00;;;1.90;;
32407;SDS011;18869;55.970;37.502;2022-09-19T04:39:29;2.83;;;1.40;;
32407;SDS011;18869;55.970;37.502;2022-09-19T04:41:57;1.60;;;1.50;;
32407;SDS011;18869;55.970;37.502;2022-09-19T04:44:30;2.37;;;1.90;;
32407;SDS011;18869;55.970;37.502;2022-09-19T04:47:01;2.77;;;1.80;;
32407;SDS011;18869;55.970;37.502;2022-09-19T04:49:32;3.73;;;1.63;;
32407;SDS011;18869;55.970;37.502;2022-09-19T04:52:08;6.57;;;1.60;;
32407;SDS011;18869;55.970;37.502;2022-09-19T04:54:40;2.50;;;1.47;;
32407;SDS011;18869;55.970;37.502;2022-09-19T04:57:09;1.53;;;1.43;;
32407;SDS011;18869;55.970;37.502;2022-09-19T04:59:37;1.23;;;1.23;;
32407;SDS011;18869;55.970;37.502;2022-09-19T05:02:05;1.83;;;1.73;;
32407;SDS011;18869;55.970;37.502;2022-09-19T05:04:34;5.60;;;1.57;;
32407;SDS011;18869;55.970;37.502;2022-09-19T05:07:02;1.87;;;1.40;;
32407;SDS011;18869;55.970;37.502;2022-09-19T05:09:30;1.27;;;1.17;;
32407;SDS011;18869;55.970;37.502;2022-09-19T05:12:00;6.20;;;1.43;;
32407;SDS011;18869;55.970;37.502;2022-09-19T05:14:30;1.30;;;1.03;;
32407;SDS011;18869;55.970;37.502;2022-09-19T05:16:59;2.93;;;1.23;;
32407;SDS011;18869;55.970;37.502;2022-09-19T05:19:29;0.80;;;0.80;;
32407;SDS011;18869;55.970;37.502;2022-09-19T05:22:00;1.53;;;1.43;;
32407;SDS011;18869;55.970;37.502;2022-09-19T05:24:28;1.40;;;1.00;;
32407;SDS011;18869;55.970;37.502;2022-09-19T05:26:57;1.23;;;1.10;;
32407;SDS011;18869;55.970;37.502;2022-09-19T05:29:27;1.63;;;1.40;;
32407;SDS011;18869;55.970;37.502;2022-09-19T05:31:54;2.63;;;1.40;;
32407;SDS011;18869;55.970;37.502;2022-09-19T05:34:28;3.77;;;1.73;;
32407;SDS011;18869;55.970;37.502;2022-09-19T05:36:56;2.30;;;1.40;;
32407;SDS011;18869;55.970;37.502;2022-09-19T05:39:24;3.27;;;1.60;;
32407;SDS011;18869;55.970;37.502;2022-09-19T05:41:53;2.27;;;1.50;;
32407;SDS011;18869;55.970;37.502;2022-09-19T05:44:21;5.63;;;1.60;;
32407;SDS011;18869;55.970;37.502;2022-09-19T05:46:51;1.73;;;1.63;;
32407;SDS011;18869;55.970;37.502;2022-09-19T05:49:19;2.30;;;1.63;;
32407;SDS011;18869;55.970;37.502;2022-09-19T05:51:46;1.10;;;1.10;;
32407;SDS011;18869;55.970;37.502;2022-09-19T05:54:14;3.97;;;1.80;;
32407;SDS011;18869;55.970;37.502;2022-09-19T05:56:42;3.03;;;1.30;;
32407;SDS011;18869;55.970;37.502;2022-09-19T05:59:10;2.97;;;1.50;;
32407;SDS011;18869;55.970;37.502;2022-09-19T06:01:38;1.50;;;1.40;;
32407;SDS011;18869;55.970;37.502;2022-09-19T06:04:08;2.67;;;1.53;;
32407;SDS011;18869;55.970;37.502;2022-09-19T06:06:36;1.70;;;1.60;;
32407;SDS011;18869;55.970;37.502;2022-09-19T06:09:04;3.17;;;1.60;;
32407;SDS011;18869;55.970;37.502;2022-09-19T06:11:32;1.57;;;1.47;;
32407;SDS011;18869;55.970;37.502;2022-09-19T06:14:00;2.60;;;1.60;;
32407;SDS011;18869;55.970;37.502;2022-09-19T06:16:49;2.27;;;1.40;;
32407;SDS011;18869;55.970;37.502;2022-09-19T06:19:20;2.43;;;1.50;;
32407;SDS011;18869;55.970;37.502;2022-09-19T06:21:48;8.97;;;1.90;;
32407;SDS011;18869;55.970;37.502;2022-09-19T06:24:17;3.80;;;1.60;;
32407;SDS011;18869;55.970;37.502;2022-09-19T06:26:47;2.97;;;1.73;;
32407;SDS011;18869;55.970;37.502;2022-09-19T06:29:15;5.23;;;1.40;;
32407;SDS011;18869;55.970;37.502;2022-09-19T06:31:47;1.13;;;1.07;;
32407;SDS011;18869;55.970;37.502;2022-09-19T06:34:15;4.73;;;1.37;;
32407;SDS011;18869;55.970;37.502;2022-09-19T06:36:45;1.27;;;1.17;;
32407;SDS011;18869;55.970;37.502;2022-09-19T06:39:14;2.50;;;0.93;;
32407;SDS011;18869;55.970;37.502;2022-09-19T06:41:42;1.83;;;1.10;;
32407;SDS011;18869;55.970;37.502;2022-09-19T06:44:12;2.53;;;1.30;;
32407;SDS011;18869;55.970;37.502;2022-09-19T06:46:49;5.03;;;1.20;;
32407;SDS011;18869;55.970;37.502;2022-09-19T06:49:20;1.57;;;1.47;;
32407;SDS011;18869;55.970;37.502;2022-09-19T06:51:49;3.20;;;1.40;;
32407;SDS011;18869;55.970;37.502;2022-09-19T06:54:18;1.50;;;1.40;;
32407;SDS011;18869;55.970;37.502;2022-09-19T06:56:49;4.97;;;1.70;;
32407;SDS011;18869;55.970;37.502;2022-09-19T06:59:18;1.70;;;1.57;;
32407;SDS011;18869;55.970;37.502;2022-09-19T07:01:45;3.60;;;1.50;;
32407;SDS011;18869;55.970;37.502;2022-09-19T07:04:14;5.40;;;1.50;;
32407;SDS011;18869;55.970;37.502;2022-09-19T07:06:43;4.23;;;2.13;;
32407;SDS011;18869;55.970;37.502;2022-09-19T07:09:12;2.93;;;1.80;;
32407;SDS011;18869;55.970;37.502;2022-09-19T07:11:40;4.13;;;2.40;;
32407;SDS011;18869;55.970;37.502;2022-09-19T07:14:10;3.33;;;2.20;;
32407;SDS011;18869;55.970;37.502;2022-09-19T07:16:39;6.10;;;2.00;;
32407;SDS011;18869;55.970;37.502;2022-09-19T07:19:07;2.90;;;1.97;;
32407;SDS011;18869;55.970;37.502;2022-09-19T07:21:35;3.73;;;2.20;;
32407;SDS011;18869;55.970;37.502;2022-09-19T07:24:03;2.47;;;2.17;;
32407;SDS011;18869;55.970;37.502;2022-09-19T07:26:33;4.67;;;1.70;;
32407;SDS011;18869;55.970;37.502;2022-09-19T07:29:03;1.77;;;1.67;;
32407;SDS011;18869;55.970;37.502;2022-09-19T07:31:30;1.60;;;1.50;;
32407;SDS011;18869;55.970;37.502;2022-09-19T07:34:01;1.33;;;1.33;;
32407;SDS011;18869;55.970;37.502;2022-09-19T07:36:32;1.33;;;1.33;;
32407;SDS011;18869;55.970;37.502;2022-09-19T07:39:01;2.87;;;1.30;;
32407;SDS011;18869;55.970;37.502;2022-09-19T07:41:29;2.63;;;1.43;;
32407;SDS011;18869;55.970;37.502;2022-09-19T07:43:58;4.03;;;1.33;;
32407;SDS011;18869;55.970;37.502;2022-09-19T07:46:29;1.57;;;1.07;;
32407;SDS011;18869;55.970;37.502;2022-09-19T07:48:59;1.80;;;0.97;;
32407;SDS011;18869;55.970;37.502;2022-09-19T07:51:26;1.70;;;1.20;;
32407;SDS011;18869;55.970;37.502;2022-09-19T07:53:56;1.20;;;1.13;;
32407;SDS011;18869;55.970;37.502;2022-09-19T07:56:24;1.10;;;1.00;;
32407;SDS011;18869;55.970;37.502;2022-09-19T07:58:53;1.90;;;1.00;;
32407;SDS011;18869;55.970;37.502;2022-09-19T08:01:22;1.77;;;0.90;;
32407;SDS011;18869;55.970;37.502;2022-09-19T08:03:52;5.27;;;0.90;;
32407;SDS011;18869;55.970;37.502;2022-09-19T08:06:20;3.43;;;1.20;;
32407;SDS011;18869;55.970;37.502;2022-09-19T08:08:48;3.00;;;1.40;;
32407;SDS011;18869;55.970;37.502;2022-09-19T08:11:17;2.57;;;2.10;;
32407;SDS011;18869;55.970;37.502;2022-09-19T08:13:47;3.40;;;1.60;;
32407;SDS011;18869;55.970;37.502;2022-09-19T08:16:15;4.50;;;1.50;;
32407;SDS011;18869;55.970;37.502;2022-09-19T08:18:44;1.83;;;1.37;;
32407;SDS011;18869;55.970;37.502;2022-09-19T08:21:12;3.53;;;1.50;;
32407;SDS011;18869;55.970;37.502;2022-09-19T08:23:40;2.90;;;1.60;;
32407;SDS011;18869;55.970;37.502;2022-09-19T08:26:08;8.10;;;1.43;;
32407;SDS011;18869;55.970;37.502;2022-09-19T08:28:36;1.70;;;1.60;;
32407;SDS011;18869;55.970;37.502;2022-09-19T08:31:05;4.00;;;1.87;;
32407;SDS011;18869;55.970;37.502;2022-09-19T08:33:35;1.57;;;1.47;;
32407;SDS011;18869;55.970;37.502;2022-09-19T08:36:04;1.67;;;1.37;;
32407;SDS011;18869;55.970;37.502;2022-09-19T08:38:33;1.17;;;1.17;;
32407;SDS011;18869;55.970;37.502;2022-09-19T08:41:07;1.57;;;1.40;;
32407;SDS011;18869;55.970;37.502;2022-09-19T08:43:42;1.67;;;1.53;;
32407;SDS011;18869;55.970;37.502;2022-09-19T08:46:13;2.17;;;1.63;;
32407;SDS011;18869;55.970;37.502;2022-09-19T08:48:44;2.40;;;1.47;;
32407;SDS011;18869;55.970;37.502;2022-09-19T08:51:21;1.47;;;1.37;;
32407;SDS011;18869;55.970;37.502;2022-09-19T08:53:55;1.77;;;1.63;;
32407;SDS011;18869;55.970;37.502;2022-09-19T08:56:25;2.63;;;1.93;;
32407;SDS011;18869;55.970;37.502;2022-09-19T08:58:54;5.70;;;1.67;;
32407;SDS011;18869;55.970;37.502;2022-09-19T09:01:25;4.67;;;1.40;;
32407;SDS011;18869;55.970;37.502;2022-09-19T09:03:58;3.20;;;1.60;;
32407;SDS011;18869;55.970;37.502;2022-09-19T09:06:37;2.20;;;1.23;;
32407;SDS011;18869;55.970;37.502;2022-09-19T09:09:10;3.23;;;1.33;;
32407;SDS011;18869;55.970;37.502;2022-09-19T09:11:47;4.53;;;1.40;;
32407;SDS011;18869;55.970;37.502;2022-09-19T09:14:24;1.67;;;1.50;;
32407;SDS011;18869;55.970;37.502;2022-09-19T09:17:02;4.83;;;1.70;;
32407;SDS011;18869;55.970;37.502;2022-09-19T09:19:43;3.43;;;1.63;;
32407;SDS011;18869;55.970;37.502;2022-09-19T09:22:22;6.50;;;1.90;;
32407;SDS011;18869;55.970;37.502;2022-09-19T09:24:55;3.63;;;1.90;;
32407;SDS011;18869;55.970;37.502;2022-09-19T09:27:30;6.63;;;1.50;;
32407;SDS011;18869;55.970;37.502;2022-09-19T09:30:03;6.10;;;1.90;;
32407;SDS011;18869;55.970;37.502;2022-09-19T09:32:43;2.03;;;1.93;;
32407;SDS011;18869;55.970;37.502;2022-09-19T09:35:17;2.77;;;1.70;;
32407;SDS011;18869;55.970;37.502;2022-09-19T09:37:56;3.30;;;1.50;;
32407;SDS011;18869;55.970;37.502;2022-09-19T09:40:33;1.63;;;1.30;;
32407;SDS011;18869;55.970;37.502;2022-09-19T09:43:35;1.87;;;1.53;;
32407;SDS011;18869;55.970;37.502;2022-09-19T09:46:07;1.60;;;1.50;;
32407;SDS011;18869;55.970;37.502;2022-09-19T09:48:40;2.40;;;1.60;;
32407;SDS011;18869;55.970;37.502;2022-09-19T09:51:14;1.70;;;1.60;;
32407;SDS011;18869;55.970;37.502;2022-09-19T09:53:56;5.17;;;2.00;;
32407;SDS011;18869;55.970;37.502;2022-09-19T09:56:54;2.57;;;1.87;;
32407;SDS011;18869;55.970;37.502;2022-09-19T09:59:25;2.03;;;1.83;;
32407;SDS011;18869;55.970;37.502;2022-09-19T10:02:20;5.27;;;2.00;;
32407;SDS011;18869;55.970;37.502;2022-09-19T10:05:09;1.90;;;1.80;;
32407;SDS011;18869;55.970;37.502;2022-09-19T10:07:43;1.80;;;1.70;;
32407;SDS011;18869;55.970;37.502;2022-09-19T10:10:27;2.60;;;2.40;;
32407;SDS011;18869;55.970;37.502;2022-09-19T10:12:57;1.90;;;1.80;;
32407;SDS011;18869;55.970;37.502;2022-09-19T10:15:28;2.17;;;1.90;;
32407;SDS011;18869;55.970;37.502;2022-09-19T10:17:58;3.03;;;1.80;;
32407;SDS011;18869;55.970;37.502;2022-09-19T10:20:35;1.90;;;1.80;;
32407;SDS011;18869;55.970;37.502;2022-09-19T10:23:09;4.53;;;2.23;;
32407;SDS011;18869;55.970;37.502;2022-09-19T10:25:43;2.63;;;2.17;;
32407;SDS011;18869;55.970;37.502;2022-09-19T10:28:15;2.50;;;2.30;;
32407;SDS011;18869;55.970;37.502;2022-09-19T10:30:53;2.40;;;2.20;;
32407;SDS011;18869;55.970;37.502;2022-09-19T10:33:25;2.07;;;1.90;;
32407;SDS011;18869;55.970;37.502;2022-09-19T10:36:03;3.33;;;1.93;;
32407;SDS011;18869;55.970;37.502;2022-09-19T10:38:37;1.93;;;1.40;;
32407;SDS011;18869;55.970;37.502;2022-09-19T10:41:15;2.77;;;1.70;;
32407;SDS011;18869;55.970;37.502;2022-09-19T10:43:48;3.63;;;1.83;;
32407;SDS011;18869;55.970;37.502;2022-09-19T10:46:19;1.87;;;1.50;;
32407;SDS011;18869;55.970;37.502;2022-09-19T10:48:49;1.77;;;1.50;;
32407;SDS011;18869;55.970;37.502;2022-09-19T10:51:19;2.10;;;2.00;;
32407;SDS011;18869;55.970;37.502;2022-09-19T10:53:47;1.97;;;1.87;;
32407;SDS011;18869;55.970;37.502;2022-09-19T10:56:22;2.10;;;2.00;;
32407;SDS011;18869;55.970;37.502;2022-09-19T10:58:55;1.80;;;1.70;;
32407;SDS011;18869;55.970;37.502;2022-09-19T11:01:28;4.80;;;1.83;;
32407;SDS011;18869;55.970;37.502;2022-09-19T11:03:57;1.93;;;1.83;;
32407;SDS011;18869;55.970;37.502;2022-09-19T11:06:27;2.57;;;2.30;;
32407;SDS011;18869;55.970;37.502;2022-09-19T11:08:55;3.17;;;2.50;;
32407;SDS011;18869;55.970;37.502;2022-09-19T11:11:41;2.30;;;2.20;;
32407;SDS011;18869;55.970;37.502;2022-09-19T11:14:15;2.10;;;1.90;;
32407;SDS011;18869;55.970;37.502;2022-09-19T11:16:48;2.10;;;2.00;;
32407;SDS011;18869;55.970;37.502;2022-09-19T11:19:30;4.17;;;2.10;;
32407;SDS011;18869;55.970;37.502;2022-09-19T11:22:21;2.10;;;2.00;;
32407;SDS011;18869;55.970;37.502;2022-09-19T11:24:58;2.50;;;2.00;;
32407;SDS011;18869;55.970;37.502;2022-09-19T11:27:35;3.37;;;1.60;;
32407;SDS011;18869;55.970;37.502;2022-09-19T11:30:12;2.23;;;1.73;;
32407;SDS011;18869;55.970;37.502;2022-09-19T11:32:55;3.13;;;1.80;;
32407;SDS011;18869;55.970;37.502;2022-09-19T11:35:33;3.70;;;2.00;;
32407;SDS011;18869;55.970;37.502;2022-09-19T11:38:09;1.83;;;1.73;;
32407;SDS011;18869;55.970;37.502;2022-09-19T11:40:48;2.60;;;2.40;;
32407;SDS011;18869;55.970;37.502;2022-09-19T11:43:31;1.60;;;1.50;;
32407;SDS011;18869;55.970;37.502;2022-09-19T11:46:13;1.80;;;1.70;;
32407;SDS011;18869;55.970;37.502;2022-09-19T11:52:18;1.70;;;1.60;;
32407;SDS011;18869;55.970;37.502;2022-09-19T11:55:02;1.90;;;1.77;;
32407;SDS011;18869;55.970;37.502;2022-09-19T11:57:37;2.03;;;1.90;;
32407;SDS011;18869;55.970;37.502;2022-09-19T12:00:11;1.77;;;1.67;;
32407;SDS011;18869;55.970;37.502;2022-09-19T12:05:50;6.50;;;2.00;;
32407;SDS011;18869;55.970;37.502;2022-09-19T12:08:30;5.03;;;2.20;;
32407;SDS011;18869;55.970;37.502;2022-09-19T12:11:09;2.40;;;2.20;;
32407;SDS011;18869;55.970;37.502;2022-09-19T12:13:41;2.33;;;2.13;;
32407;SDS011;18869;55.970;37.502;2022-09-19T12:16:15;2.03;;;1.93;;
32407;SDS011;18869;55.970;37.502;2022-09-19T12:18:49;1.77;;;1.67;;
32407;SDS011;18869;55.970;37.502;2022-09-19T12:21:22;2.17;;;1.97;;
32407;SDS011;18869;55.970;37.502;2022-09-19T12:23:52;2.20;;;1.70;;
32407;SDS011;18869;55.970;37.502;2022-09-19T12:26:43;2.07;;;1.97;;
32407;SDS011;18869;55.970;37.502;2022-09-19T12:29:19;2.20;;;1.67;;
32407;SDS011;18869;55.970;37.502;2022-09-19T12:31:52;2.00;;;1.90;;
32407;SDS011;18869;55.970;37.502;2022-09-19T12:34:26;1.60;;;1.57;;
32407;SDS011;18869;55.970;37.502;2022-09-19T12:37:04;1.77;;;1.67;;
32407;SDS011;18869;55.970;37.502;2022-09-19T12:39:35;1.57;;;1.43;;
32407;SDS011;18869;55.970;37.502;2022-09-19T12:42:08;1.73;;;1.63;;
32407;SDS011;18869;55.970;37.502;2022-09-19T12:44:39;1.70;;;1.60;;
32407;SDS011;18869;55.970;37.502;2022-09-19T12:47:15;1.87;;;1.53;;
32407;SDS011;18869;55.970;37.502;2022-09-19T12:49:51;1.80;;;1.70;;
32407;SDS011;18869;55.970;37.502;2022-09-19T12:52:24;2.03;;;1.93;;
32407;SDS011;18869;55.970;37.502;2022-09-19T12:54:56;1.80;;;1.70;;
32407;SDS011;18869;55.970;37.502;2022-09-19T12:57:32;1.63;;;1.53;;
32407;SDS011;18869;55.970;37.502;2022-09-19T13:00:07;1.93;;;1.83;;
32407;SDS011;18869;55.970;37.502;2022-09-19T13:02:40;1.80;;;1.70;;
32407;SDS011;18869;55.970;37.502;2022-09-19T13:05:10;1.50;;;1.40;;
32407;SDS011;18869;55.970;37.502;2022-09-19T13:07:46;2.27;;;2.07;;
32407;SDS011;18869;55.970;37.502;2022-09-19T13:10:17;5.00;;;1.70;;
32407;SDS011;18869;55.970;37.502;2022-09-19T13:12:50;3.07;;;1.57;;
32407;SDS011;18869;55.970;37.502;2022-09-19T13:15:21;1.70;;;1.63;;
32407;SDS011;18869;55.970;37.502;2022-09-19T13:17:53;2.00;;;1.83;;
32407;SDS011;18869;55.970;37.502;2022-09-19T13:20:42;1.60;;;1.50;;
32407;SDS011;18869;55.970;37.502;2022-09-19T13:23:29;1.57;;;1.47;;
32407;SDS011;18869;55.970;37.502;2022-09-19T13:25:58;2.30;;;1.70;;
32407;SDS011;18869;55.970;37.502;2022-09-19T13:28:46;1.83;;;1.73;;
32407;SDS011;18869;55.970;37.502;2022-09-19T13:31:15;1.90;;;1.80;;
32407;SDS011;18869;55.970;37.502;2022-09-19T13:33:46;1.90;;;1.80;;
32407;SDS011;18869;55.970;37.502;2022-09-19T13:36:18;2.27;;;2.07;;
32407;SDS011;18869;55.970;37.502;2022-09-19T13:39:10;1.90;;;1.80;;
32407;SDS011;18869;55.970;37.502;2022-09-19T13:42:15;1.83;;;1.73;;
32407;SDS011;18869;55.970;37.502;2022-09-19T13:44:53;5.33;;;2.00;;
32407;SDS011;18869;55.970;37.502;2022-09-19T13:47:29;1.50;;;1.40;;
32407;SDS011;18869;55.970;37.502;2022-09-19T13:50:03;2.27;;;2.17;;
32407;SDS011;18869;55.970;37.502;2022-09-19T13:52:35;1.70;;;1.70;;
32407;SDS011;18869;55.970;37.502;2022-09-19T13:55:15;1.50;;;1.50;;
32407;SDS011;18869;55.970;37.502;2022-09-19T13:57:45;2.07;;;1.97;;
32407;SDS011;18869;55.970;37.502;2022-09-19T14:00:25;2.13;;;2.03;;
32407;SDS011;18869;55.970;37.502;2022-09-19T14:02:59;2.00;;;1.60;;
32407;SDS011;18869;55.970;37.502;2022-09-19T14:05:30;1.93;;;1.70;;
32407;SDS011;18869;55.970;37.502;2022-09-19T14:08:01;1.70;;;1.50;;
32407;SDS011;18869;55.970;37.502;2022-09-19T14:10:30;1.77;;;1.67;;
32407;SDS011;18869;55.970;37.502;2022-09-19T14:13:02;1.73;;;1.63;;
32407;SDS011;18869;55.970;37.502;2022-09-19T14:18:48;3.33;;;1.83;;
32407;SDS011;18869;55.970;37.502;2022-09-19T14:24:31;1.63;;;1.53;;
32407;SDS011;18869;55.970;37.502;2022-09-19T14:27:11;2.07;;;1.97;;
32407;SDS011;18869;55.970;37.502;2022-09-19T14:29:46;1.77;;;1.77;;
32407;SDS011;18869;55.970;37.502;2022-09-19T14:32:19;2.07;;;1.83;;
32407;SDS011;18869;55.970;37.502;2022-09-19T14:41:03;2.30;;;2.20;;
32407;SDS011;18869;55.970;37.502;2022-09-19T14:44:00;1.77;;;1.67;;
32407;SDS011;18869;55.970;37.502;2022-09-19T14:46:54;4.07;;;1.70;;
32407;SDS011;18869;55.970;37.502;2022-09-19T14:49:26;1.70;;;1.60;;
32407;SDS011;18869;55.970;37.502;2022-09-19T14:51:57;1.70;;;1.60;;
32407;SDS011;18869;55.970;37.502;2022-09-19T14:54:32;1.83;;;1.73;;
32407;SDS011;18869;55.970;37.502;2022-09-19T14:57:12;2.33;;;1.70;;
32407;SDS011;18869;55.970;37.502;2022-09-19T14:59:40;1.80;;;1.70;;
32407;SDS011;18869;55.970;37.502;2022-09-19T15:02:17;2.77;;;1.77;;
32407;SDS011;18869;55.970;37.502;2022-09-19T15:04:48;1.90;;;1.80;;
32407;SDS011;18869;55.970;37.502;2022-09-19T15:07:18;1.93;;;1.67;;
32407;SDS011;18869;55.970;37.502;2022-09-19T15:09:51;1.70;;;1.60;;
32407;SDS011;18869;55.970;37.502;2022-09-19T15:12:22;1.90;;;1.73;;
32407;SDS011;18869;55.970;37.502;2022-09-19T15:14:50;1.70;;;1.60;;
32407;SDS011;18869;55.970;37.502;2022-09-19T15:17:18;2.03;;;1.90;;
32407;SDS011;18869;55.970;37.502;2022-09-19T15:19:49;4.43;;;2.07;;
32407;SDS011;18869;55.970;37.502;2022-09-19T15:22:23;2.47;;;2.27;;
32407;SDS011;18869;55.970;37.502;2022-09-19T15:24:55;2.10;;;2.00;;
32407;SDS011;18869;55.970;37.502;2022-09-19T15:27:25;1.80;;;1.70;;